sensor_id;sensor_type;location;lat;lon;timestamp;P1;P2;P0
83024;PMS5003;72958;53.326;-1.496;2024-01-30T00:00:50;38;38;
83024;PMS5003;72958;53.326;-1.496;2024-01-30T00:03:35;32;32;
83024;PMS5003;72958;53.326;-1.496;2024-01-30T00:06:25;43;42;
83024;PMS5003;72958;53.326;-1.496;2024-01-30T00:09:09;37;37;
83024;PMS5003;72958;53.326;-1.496;2024-01-30T00:11:50;41;40;
83024;PMS5003;72958;53.326;-1.496;2024-01-30T00:14:29;36;36;
83024;PMS5003;72958;53.326;-1.496;2024-01-30T00:17:00;27;27;
83024;PMS5003;72958;53.326;-1.496;2024-01-30T00:19:38;34;32;
83024;PMS5003;72958;53.326;-1.496;2024-01-30T00:22:05;36;35;
83024;PMS5003;72958;53.326;-1.496;2024-01-30T00:24:30;34;31;
83024;PMS5003;72958;53.326;-1.496;2024-01-30T00:27:01;25;25;
83024;PMS5003;72958;53.326;-1.496;2024-01-30T00:29:27;32;32;
83024;PMS5003;72958;53.326;-1.496;2024-01-30T00:31:58;24;24;
83024;PMS5003;72958;53.326;-1.496;2024-01-30T00:34:23;39;34;
83024;PMS5003;72958;53.326;-1.496;2024-01-30T00:37:39;30;30;
83024;PMS5003;72958;53.326;-1.496;2024-01-30T00:40:11;36;34;
83024;PMS5003;72958;53.326;-1.496;2024-01-30T00:42:45;35;34;
83024;PMS5003;72958;53.326;-1.496;2024-01-30T00:45:24;23;23;
83024;PMS5003;72958;53.326;-1.496;2024-01-30T00:47:43;26;26;
83024;PMS5003;72958;53.326;-1.496;2024-01-30T00:50:20;25;25;
83024;PMS5003;72958;53.326;-1.496;2024-01-30T00:52:54;32;29;
83024;PMS5003;72958;53.326;-1.496;2024-01-30T00:55:25;34;29;
83024;PMS5003;72958;53.326;-1.496;2024-01-30T00:57:54;20;20;
83024;PMS5003;72958;53.326;-1.496;2024-01-30T01:00:21;30;29;
83024;PMS5003;72958;53.326;-1.496;2024-01-30T01:02:50;25;23;
83024;PMS5003;72958;53.326;-1.496;2024-01-30T01:05:21;30;29;
83024;PMS5003;72958;53.326;-1.496;2024-01-30T01:07:52;27;27;
83024;PMS5003;72958;53.326;-1.496;2024-01-30T01:10:56;26;26;
83024;PMS5003;72958;53.326;-1.496;2024-01-30T01:13:36;16;16;
83024;PMS5003;72958;53.326;-1.496;2024-01-30T01:16:06;29;27;
83024;PMS5003;72958;53.326;-1.496;2024-01-30T01:18:35;42;42;
83024;PMS5003;72958;53.326;-1.496;2024-01-30T01:21:37;19;19;
83024;PMS5003;72958;53.326;-1.496;2024-01-30T01:24:12;26;26;
83024;PMS5003;72958;53.326;-1.496;2024-01-30T01:26:48;20;20;
83024;PMS5003;72958;53.326;-1.496;2024-01-30T01:29:25;26;26;
83024;PMS5003;72958;53.326;-1.496;2024-01-30T01:31:54;31;29;
83024;PMS5003;72958;53.326;-1.496;2024-01-30T01:34:21;31;31;
83024;PMS5003;72958;53.326;-1.496;2024-01-30T01:37:01;31;29;
83024;PMS5003;72958;53.326;-1.496;2024-01-30T01:39:51;32;32;
83024;PMS5003;72958;53.326;-1.496;2024-01-30T01:42:34;27;26;
83024;PMS5003;72958;53.326;-1.496;2024-01-30T01:45:35;24;22;
83024;PMS5003;72958;53.326;-1.496;2024-01-30T01:48:00;26;25;
83024;PMS5003;72958;53.326;-1.496;2024-01-30T01:50:28;24;22;
83024;PMS5003;72958;53.326;-1.496;2024-01-30T01:52:59;33;33;
83024;PMS5003;72958;53.326;-1.496;2024-01-30T01:55:33;24;24;
83024;PMS5003;72958;53.326;-1.496;2024-01-30T01:58:09;27;26;
83024;PMS5003;72958;53.326;-1.496;2024-01-30T02:01:01;17;14;
83024;PMS5003;72958;53.326;-1.496;2024-01-30T02:04:25;26;24;
83024;PMS5003;72958;53.326;-1.496;2024-01-30T02:06:59;29;28;
83024;PMS5003;72958;53.326;-1.496;2024-01-30T02:09:48;22;21;
83024;PMS5003;72958;53.326;-1.496;2024-01-30T02:12:17;16;16;
83024;PMS5003;72958;53.326;-1.496;2024-01-30T02:15:07;17;15;
83024;PMS5003;72958;53.326;-1.496;2024-01-30T02:17:58;23;18;
83024;PMS5003;72958;53.326;-1.496;2024-01-30T02:20:31;18;17;
83024;PMS5003;72958;53.326;-1.496;2024-01-30T02:23:04;15;15;
83024;PMS5003;72958;53.326;-1.496;2024-01-30T02:25:33;15;15;
83024;PMS5003;72958;53.326;-1.496;2024-01-30T02:29:11;5;5;
83024;PMS5003;72958;53.326;-1.496;2024-01-30T02:31:59;11;11;
83024;PMS5003;72958;53.326;-1.496;2024-01-30T02:34:24;9;6;
83024;PMS5003;72958;53.326;-1.496;2024-01-30T02:36:55;7;7;
83024;PMS5003;72958;53.326;-1.496;2024-01-30T02:39:19;8;8;
83024;PMS5003;72958;53.326;-1.496;2024-01-30T02:41:59;7;7;
83024;PMS5003;72958;53.326;-1.496;2024-01-30T02:44:40;6;5;
83024;PMS5003;72958;53.326;-1.496;2024-01-30T02:47:13;8;8;
83024;PMS5003;72958;53.326;-1.496;2024-01-30T02:49:37;8;6;
83024;PMS5003;72958;53.326;-1.496;2024-01-30T02:52:06;9;9;
83024;PMS5003;72958;53.326;-1.496;2024-01-30T02:54:36;6;6;
83024;PMS5003;72958;53.326;-1.496;2024-01-30T02:57:54;6;3;
83024;PMS5003;72958;53.326;-1.496;2024-01-30T03:00:24;7;7;
83024;PMS5003;72958;53.326;-1.496;2024-01-30T03:02:50;5;5;
83024;PMS5003;72958;53.326;-1.496;2024-01-30T03:05:17;6;6;
83024;PMS5003;72958;53.326;-1.496;2024-01-30T03:08:08;6;6;
83024;PMS5003;72958;53.326;-1.496;2024-01-30T03:10:39;5;3;
83024;PMS5003;72958;53.326;-1.496;2024-01-30T03:13:18;9;9;
83024;PMS5003;72958;53.326;-1.496;2024-01-30T03:15:52;7;6;
83024;PMS5003;72958;53.326;-1.496;2024-01-30T03:18:26;2;2;
83024;PMS5003;72958;53.326;-1.496;2024-01-30T03:20:55;4;4;
83024;PMS5003;72958;53.326;-1.496;2024-01-30T03:23:29;1;1;
83024;PMS5003;72958;53.326;-1.496;2024-01-30T03:26:07;1;1;
83024;PMS5003;72958;53.326;-1.496;2024-01-30T03:28:52;2;2;
83024;PMS5003;72958;53.326;-1.496;2024-01-30T03:31:25;3;3;
83024;PMS5003;72958;53.326;-1.496;2024-01-30T03:33:59;3;3;
83024;PMS5003;72958;53.326;-1.496;2024-01-30T03:36:47;3;3;
83024;PMS5003;72958;53.326;-1.496;2024-01-30T03:39:42;5;5;
83024;PMS5003;72958;53.326;-1.496;2024-01-30T03:42:08;6;6;
83024;PMS5003;72958;53.326;-1.496;2024-01-30T03:44:41;4;4;
83024;PMS5003;72958;53.326;-1.496;2024-01-30T03:47:09;3;3;
83024;PMS5003;72958;53.326;-1.496;2024-01-30T03:50:25;3;3;
83024;PMS5003;72958;53.326;-1.496;2024-01-30T03:53:09;5;5;
83024;PMS5003;72958;53.326;-1.496;2024-01-30T03:56:10;7;7;
83024;PMS5003;72958;53.326;-1.496;2024-01-30T03:59:08;4;4;
83024;PMS5003;72958;53.326;-1.496;2024-01-30T04:01:35;5;5;
83024;PMS5003;72958;53.326;-1.496;2024-01-30T04:04:11;3;3;
83024;PMS5003;72958;53.326;-1.496;2024-01-30T04:07:53;5;4;
83024;PMS5003;72958;53.326;-1.496;2024-01-30T04:10:23;5;5;
83024;PMS5003;72958;53.326;-1.496;2024-01-30T04:12:50;6;6;
83024;PMS5003;72958;53.326;-1.496;2024-01-30T04:15:14;4;4;
83024;PMS5003;72958;53.326;-1.496;2024-01-30T04:17:45;3;3;
83024;PMS5003;72958;53.326;-1.496;2024-01-30T04:20:13;3;3;
83024;PMS5003;72958;53.326;-1.496;2024-01-30T04:22:52;2;2;
83024;PMS5003;72958;53.326;-1.496;2024-01-30T04:25:26;1;1;
83024;PMS5003;72958;53.326;-1.496;2024-01-30T04:28:10;1;1;
83024;PMS5003;72958;53.326;-1.496;2024-01-30T04:30:45;1;1;
83024;PMS5003;72958;53.326;-1.496;2024-01-30T04:33:06;0;0;
83024;PMS5003;72958;53.326;-1.496;2024-01-30T04:35:36;0;0;
83024;PMS5003;72958;53.326;-1.496;2024-01-30T04:38:12;0;0;
83024;PMS5003;72958;53.326;-1.496;2024-01-30T04:41:08;1;1;
83024;PMS5003;72958;53.326;-1.496;2024-01-30T04:44:21;0;0;
83024;PMS5003;72958;53.326;-1.496;2024-01-30T04:46:48;0;0;
83024;PMS5003;72958;53.326;-1.496;2024-01-30T04:49:38;0;0;
83024;PMS5003;72958;53.326;-1.496;2024-01-30T04:52:10;2;0;
83024;PMS5003;72958;53.326;-1.496;2024-01-30T04:54:42;0;0;
83024;PMS5003;72958;53.326;-1.496;2024-01-30T04:57:17;0;0;
83024;PMS5003;72958;53.326;-1.496;2024-01-30T04:59:44;0;0;
83024;PMS5003;72958;53.326;-1.496;2024-01-30T05:02:39;0;0;
83024;PMS5003;72958;53.326;-1.496;2024-01-30T05:05:34;0;0;
83024;PMS5003;72958;53.326;-1.496;2024-01-30T05:08:00;1;1;
83024;PMS5003;72958;53.326;-1.496;2024-01-30T05:10:26;0;0;
83024;PMS5003;72958;53.326;-1.496;2024-01-30T05:13:18;1;0;
83024;PMS5003;72958;53.326;-1.496;2024-01-30T05:16:01;2;2;
83024;PMS5003;72958;53.326;-1.496;2024-01-30T05:18:44;0;0;
83024;PMS5003;72958;53.326;-1.496;2024-01-30T05:21:37;1;1;
83024;PMS5003;72958;53.326;-1.496;2024-01-30T05:24:11;2;2;
83024;PMS5003;72958;53.326;-1.496;2024-01-30T05:26:37;1;1;
83024;PMS5003;72958;53.326;-1.496;2024-01-30T05:29:04;1;1;
83024;PMS5003;72958;53.326;-1.496;2024-01-30T05:31:37;0;0;
83024;PMS5003;72958;53.326;-1.496;2024-01-30T05:34:13;2;2;
83024;PMS5003;72958;53.326;-1.496;2024-01-30T05:37:08;3;3;
83024;PMS5003;72958;53.326;-1.496;2024-01-30T05:40:16;4;4;
83024;PMS5003;72958;53.326;-1.496;2024-01-30T05:42:49;2;2;
83024;PMS5003;72958;53.326;-1.496;2024-01-30T05:45:50;2;2;
83024;PMS5003;72958;53.326;-1.496;2024-01-30T05:48:41;0;0;
83024;PMS5003;72958;53.326;-1.496;2024-01-30T05:51:13;3;3;
83024;PMS5003;72958;53.326;-1.496;2024-01-30T05:53:47;3;3;
83024;PMS5003;72958;53.326;-1.496;2024-01-30T05:56:50;5;5;
83024;PMS5003;72958;53.326;-1.496;2024-01-30T05:59:27;3;3;
83024;PMS5003;72958;53.326;-1.496;2024-01-30T06:01:55;7;7;
83024;PMS5003;72958;53.326;-1.496;2024-01-30T06:04:33;6;5;
83024;PMS5003;72958;53.326;-1.496;2024-01-30T06:07:11;5;5;
83024;PMS5003;72958;53.326;-1.496;2024-01-30T06:09:47;2;2;
83024;PMS5003;72958;53.326;-1.496;2024-01-30T06:12:45;2;2;
83024;PMS5003;72958;53.326;-1.496;2024-01-30T06:15:09;2;2;
83024;PMS5003;72958;53.326;-1.496;2024-01-30T06:18:02;2;2;
83024;PMS5003;72958;53.326;-1.496;2024-01-30T06:23:20;0;0;
83024;PMS5003;72958;53.326;-1.496;2024-01-30T06:25:47;0;0;
83024;PMS5003;72958;53.326;-1.496;2024-01-30T06:31:08;0;0;
83024;PMS5003;72958;53.326;-1.496;2024-01-30T06:33:38;0;0;
83024;PMS5003;72958;53.326;-1.496;2024-01-30T06:36:08;0;0;
83024;PMS5003;72958;53.326;-1.496;2024-01-30T06:39:19;0;0;
83024;PMS5003;72958;53.326;-1.496;2024-01-30T06:41:51;0;0;
83024;PMS5003;72958;53.326;-1.496;2024-01-30T06:44:50;2;0;
83024;PMS5003;72958;53.326;-1.496;2024-01-30T06:47:22;0;0;
83024;PMS5003;72958;53.326;-1.496;2024-01-30T06:49:59;0;0;
83024;PMS5003;72958;53.326;-1.496;2024-01-30T06:52:32;0;0;
83024;PMS5003;72958;53.326;-1.496;2024-01-30T06:55:14;0;0;
83024;PMS5003;72958;53.326;-1.496;2024-01-30T06:58:02;0;0;
83024;PMS5003;72958;53.326;-1.496;2024-01-30T07:00:29;0;0;
83024;PMS5003;72958;53.326;-1.496;2024-01-30T07:03:05;0;0;
83024;PMS5003;72958;53.326;-1.496;2024-01-30T07:05:44;0;0;
83024;PMS5003;72958;53.326;-1.496;2024-01-30T07:08:23;0;0;
83024;PMS5003;72958;53.326;-1.496;2024-01-30T07:10:57;0;0;
83024;PMS5003;72958;53.326;-1.496;2024-01-30T07:13:35;0;0;
83024;PMS5003;72958;53.326;-1.496;2024-01-30T07:16:00;0;0;
83024;PMS5003;72958;53.326;-1.496;2024-01-30T07:19:16;0;0;
83024;PMS5003;72958;53.326;-1.496;2024-01-30T07:22:17;0;0;
83024;PMS5003;72958;53.326;-1.496;2024-01-30T07:24:48;0;0;
83024;PMS5003;72958;53.326;-1.496;2024-01-30T07:27:31;0;0;
83024;PMS5003;72958;53.326;-1.496;2024-01-30T07:30:13;0;0;
83024;PMS5003;72958;53.326;-1.496;2024-01-30T07:33:06;0;0;
83024;PMS5003;72958;53.326;-1.496;2024-01-30T07:35:39;0;0;
83024;PMS5003;72958;53.326;-1.496;2024-01-30T07:38:15;0;0;
83024;PMS5003;72958;53.326;-1.496;2024-01-30T07:40:48;0;0;
83024;PMS5003;72958;53.326;-1.496;2024-01-30T07:44:09;0;0;
83024;PMS5003;72958;53.326;-1.496;2024-01-30T07:47:07;0;0;
83024;PMS5003;72958;53.326;-1.496;2024-01-30T07:49:51;0;0;
83024;PMS5003;72958;53.326;-1.496;2024-01-30T07:52:20;0;0;
83024;PMS5003;72958;53.326;-1.496;2024-01-30T07:54:55;0;0;
83024;PMS5003;72958;53.326;-1.496;2024-01-30T07:57:25;0;0;
83024;PMS5003;72958;53.326;-1.496;2024-01-30T08:00:04;0;0;
83024;PMS5003;72958;53.326;-1.496;2024-01-30T08:02:53;0;0;
83024;PMS5003;72958;53.326;-1.496;2024-01-30T08:05:37;0;0;
83024;PMS5003;72958;53.326;-1.496;2024-01-30T08:08:08;0;0;
83024;PMS5003;72958;53.326;-1.496;2024-01-30T08:10:36;0;0;
83024;PMS5003;72958;53.326;-1.496;2024-01-30T08:13:09;0;0;
83024;PMS5003;72958;53.326;-1.496;2024-01-30T08:15:59;0;0;
83024;PMS5003;72958;53.326;-1.496;2024-01-30T08:19:16;0;0;
83024;PMS5003;72958;53.326;-1.496;2024-01-30T08:21:49;0;0;
83024;PMS5003;72958;53.326;-1.496;2024-01-30T08:24:14;0;0;
83024;PMS5003;72958;53.326;-1.496;2024-01-30T08:27:01;0;0;
83024;PMS5003;72958;53.326;-1.496;2024-01-30T08:29:36;0;0;
83024;PMS5003;72958;53.326;-1.496;2024-01-30T08:32:15;1;0;
83024;PMS5003;72958;53.326;-1.496;2024-01-30T08:34:42;0;0;
83024;PMS5003;72958;53.326;-1.496;2024-01-30T08:37:56;0;0;
83024;PMS5003;72958;53.326;-1.496;2024-01-30T08:40:39;0;0;
83024;PMS5003;72958;53.326;-1.496;2024-01-30T08:45:35;0;0;
83024;PMS5003;72958;53.326;-1.496;2024-01-30T08:48:09;0;0;
83024;PMS5003;72958;53.326;-1.496;2024-01-30T08:50:38;0;0;
83024;PMS5003;72958;53.326;-1.496;2024-01-30T08:53:20;0;0;
83024;PMS5003;72958;53.326;-1.496;2024-01-30T08:55:49;0;0;
83024;PMS5003;72958;53.326;-1.496;2024-01-30T08:58:20;0;0;
83024;PMS5003;72958;53.326;-1.496;2024-01-30T09:01:11;0;0;
83024;PMS5003;72958;53.326;-1.496;2024-01-30T09:03:39;0;0;
83024;PMS5003;72958;53.326;-1.496;2024-01-30T09:06:09;0;0;
83024;PMS5003;72958;53.326;-1.496;2024-01-30T09:09:10;0;0;
83024;PMS5003;72958;53.326;-1.496;2024-01-30T09:11:35;0;0;
83024;PMS5003;72958;53.326;-1.496;2024-01-30T09:14:00;0;0;
83024;PMS5003;72958;53.326;-1.496;2024-01-30T09:16:25;0;0;
83024;PMS5003;72958;53.326;-1.496;2024-01-30T09:19:11;2;0;
83024;PMS5003;72958;53.326;-1.496;2024-01-30T09:21:41;0;0;
83024;PMS5003;72958;53.326;-1.496;2024-01-30T09:24:11;0;0;
83024;PMS5003;72958;53.326;-1.496;2024-01-30T09:26:53;0;0;
83024;PMS5003;72958;53.326;-1.496;2024-01-30T09:29:24;0;0;
83024;PMS5003;72958;53.326;-1.496;2024-01-30T09:31:51;0;0;
83024;PMS5003;72958;53.326;-1.496;2024-01-30T09:34:18;0;0;
83024;PMS5003;72958;53.326;-1.496;2024-01-30T09:36:48;0;0;
83024;PMS5003;72958;53.326;-1.496;2024-01-30T09:39:54;0;0;
83024;PMS5003;72958;53.326;-1.496;2024-01-30T09:42:26;0;0;
83024;PMS5003;72958;53.326;-1.496;2024-01-30T09:45:12;0;0;
83024;PMS5003;72958;53.326;-1.496;2024-01-30T09:48:12;0;0;
83024;PMS5003;72958;53.326;-1.496;2024-01-30T09:50:39;0;0;
83024;PMS5003;72958;53.326;-1.496;2024-01-30T09:53:04;0;0;
83024;PMS5003;72958;53.326;-1.496;2024-01-30T09:55:31;0;0;
83024;PMS5003;72958;53.326;-1.496;2024-01-30T09:58:09;0;0;
83024;PMS5003;72958;53.326;-1.496;2024-01-30T10:00:34;0;0;
83024;PMS5003;72958;53.326;-1.496;2024-01-30T10:03:06;0;0;
83024;PMS5003;72958;53.326;-1.496;2024-01-30T10:05:54;0;0;
83024;PMS5003;72958;53.326;-1.496;2024-01-30T10:08:29;0;0;
83024;PMS5003;72958;53.326;-1.496;2024-01-30T10:10:55;0;0;
83024;PMS5003;72958;53.326;-1.496;2024-01-30T10:13:23;0;0;
83024;PMS5003;72958;53.326;-1.496;2024-01-30T10:15:56;0;0;
83024;PMS5003;72958;53.326;-1.496;2024-01-30T10:18:30;0;0;
83024;PMS5003;72958;53.326;-1.496;2024-01-30T10:20:55;0;0;
83024;PMS5003;72958;53.326;-1.496;2024-01-30T10:23:41;0;0;
83024;PMS5003;72958;53.326;-1.496;2024-01-30T10:26:15;0;0;
83024;PMS5003;72958;53.326;-1.496;2024-01-30T10:28:42;0;0;
83024;PMS5003;72958;53.326;-1.496;2024-01-30T10:31:18;0;0;
83024;PMS5003;72958;53.326;-1.496;2024-01-30T10:34:04;0;0;
83024;PMS5003;72958;53.326;-1.496;2024-01-30T10:36:41;0;0;
83024;PMS5003;72958;53.326;-1.496;2024-01-30T10:39:06;0;0;
83024;PMS5003;72958;53.326;-1.496;2024-01-30T10:41:36;0;0;
83024;PMS5003;72958;53.326;-1.496;2024-01-30T10:44:01;0;0;
83024;PMS5003;72958;53.326;-1.496;2024-01-30T10:46:27;0;0;
83024;PMS5003;72958;53.326;-1.496;2024-01-30T10:48:55;0;0;
83024;PMS5003;72958;53.326;-1.496;2024-01-30T10:51:31;0;0;
83024;PMS5003;72958;53.326;-1.496;2024-01-30T10:54:14;0;0;
83024;PMS5003;72958;53.326;-1.496;2024-01-30T10:57:14;0;0;
83024;PMS5003;72958;53.326;-1.496;2024-01-30T10:59:52;0;0;
83024;PMS5003;72958;53.326;-1.496;2024-01-30T11:02:43;0;0;
83024;PMS5003;72958;53.326;-1.496;2024-01-30T11:05:08;0;0;
83024;PMS5003;72958;53.326;-1.496;2024-01-30T11:07:40;0;0;
83024;PMS5003;72958;53.326;-1.496;2024-01-30T11:10:05;0;0;
83024;PMS5003;72958;53.326;-1.496;2024-01-30T11:12:31;0;0;
83024;PMS5003;72958;53.326;-1.496;2024-01-30T11:15:10;0;0;
83024;PMS5003;72958;53.326;-1.496;2024-01-30T11:17:41;0;0;
83024;PMS5003;72958;53.326;-1.496;2024-01-30T11:20:09;0;0;
83024;PMS5003;72958;53.326;-1.496;2024-01-30T11:22:35;0;0;
83024;PMS5003;72958;53.326;-1.496;2024-01-30T11:25:11;0;0;
83024;PMS5003;72958;53.326;-1.496;2024-01-30T11:27:49;0;0;
83024;PMS5003;72958;53.326;-1.496;2024-01-30T11:30:22;0;0;
83024;PMS5003;72958;53.326;-1.496;2024-01-30T11:32:59;0;0;
83024;PMS5003;72958;53.326;-1.496;2024-01-30T11:35:23;0;0;
83024;PMS5003;72958;53.326;-1.496;2024-01-30T11:39:12;0;0;
83024;PMS5003;72958;53.326;-1.496;2024-01-30T11:41:40;0;0;
83024;PMS5003;72958;53.326;-1.496;2024-01-30T11:44:09;3;0;
83024;PMS5003;72958;53.326;-1.496;2024-01-30T11:46:38;0;0;
83024;PMS5003;72958;53.326;-1.496;2024-01-30T11:49:10;0;0;
83024;PMS5003;72958;53.326;-1.496;2024-01-30T11:51:37;0;0;
83024;PMS5003;72958;53.326;-1.496;2024-01-30T11:54:49;0;0;
83024;PMS5003;72958;53.326;-1.496;2024-01-30T11:57:26;0;0;
83024;PMS5003;72958;53.326;-1.496;2024-01-30T12:00:14;0;0;
83024;PMS5003;72958;53.326;-1.496;2024-01-30T12:03:39;0;0;
83024;PMS5003;72958;53.326;-1.496;2024-01-30T12:06:09;0;0;
83024;PMS5003;72958;53.326;-1.496;2024-01-30T12:08:56;0;0;
83024;PMS5003;72958;53.326;-1.496;2024-01-30T12:11:21;0;0;
83024;PMS5003;72958;53.326;-1.496;2024-01-30T12:13:56;0;0;
83024;PMS5003;72958;53.326;-1.496;2024-01-30T12:16:23;0;0;
83024;PMS5003;72958;53.326;-1.496;2024-01-30T12:19:02;0;0;
83024;PMS5003;72958;53.326;-1.496;2024-01-30T12:21:33;0;0;
83024;PMS5003;72958;53.326;-1.496;2024-01-30T12:24:06;0;0;
83024;PMS5003;72958;53.326;-1.496;2024-01-30T12:26:30;0;0;
83024;PMS5003;72958;53.326;-1.496;2024-01-30T12:28:56;0;0;
83024;PMS5003;72958;53.326;-1.496;2024-01-30T12:31:41;0;0;
83024;PMS5003;72958;53.326;-1.496;2024-01-30T12:33:55;0;0;
83024;PMS5003;72958;53.326;-1.496;2024-01-30T12:36:42;0;0;
83024;PMS5003;72958;53.326;-1.496;2024-01-30T12:39:11;0;0;
83024;PMS5003;72958;53.326;-1.496;2024-01-30T12:41:38;0;0;
83024;PMS5003;72958;53.326;-1.496;2024-01-30T12:45:52;0;0;
83024;PMS5003;72958;53.326;-1.496;2024-01-30T12:48:24;0;0;
83024;PMS5003;72958;53.326;-1.496;2024-01-30T12:50:53;1;1;
83024;PMS5003;72958;53.326;-1.496;2024-01-30T12:53:20;0;0;
83024;PMS5003;72958;53.326;-1.496;2024-01-30T12:56:36;0;0;
83024;PMS5003;72958;53.326;-1.496;2024-01-30T12:59:15;0;0;
83024;PMS5003;72958;53.326;-1.496;2024-01-30T13:02:11;0;0;
83024;PMS5003;72958;53.326;-1.496;2024-01-30T13:04:36;0;0;
83024;PMS5003;72958;53.326;-1.496;2024-01-30T13:07:24;2;2;
83024;PMS5003;72958;53.326;-1.496;2024-01-30T13:09:51;0;0;
83024;PMS5003;72958;53.326;-1.496;2024-01-30T13:12:35;0;0;
83024;PMS5003;72958;53.326;-1.496;2024-01-30T13:15:24;0;0;
83024;PMS5003;72958;53.326;-1.496;2024-01-30T13:18:15;1;1;
83024;PMS5003;72958;53.326;-1.496;2024-01-30T13:20:44;0;0;
83024;PMS5003;72958;53.326;-1.496;2024-01-30T13:23:14;0;0;
83024;PMS5003;72958;53.326;-1.496;2024-01-30T13:25:39;0;0;
83024;PMS5003;72958;53.326;-1.496;2024-01-30T13:28:07;0;0;
83024;PMS5003;72958;53.326;-1.496;2024-01-30T13:31:09;1;1;
83024;PMS5003;72958;53.326;-1.496;2024-01-30T13:33:39;1;1;
83024;PMS5003;72958;53.326;-1.496;2024-01-30T13:36:51;0;0;
83024;PMS5003;72958;53.326;-1.496;2024-01-30T13:39:50;0;0;
83024;PMS5003;72958;53.326;-1.496;2024-01-30T13:42:39;0;0;
83024;PMS5003;72958;53.326;-1.496;2024-01-30T13:45:06;0;0;
83024;PMS5003;72958;53.326;-1.496;2024-01-30T13:47:53;0;0;
83024;PMS5003;72958;53.326;-1.496;2024-01-30T13:50:43;0;0;
83024;PMS5003;72958;53.326;-1.496;2024-01-30T13:53:21;2;2;
83024;PMS5003;72958;53.326;-1.496;2024-01-30T13:55:51;1;1;
83024;PMS5003;72958;53.326;-1.496;2024-01-30T13:58:21;1;1;
83024;PMS5003;72958;53.326;-1.496;2024-01-30T14:01:09;0;0;
83024;PMS5003;72958;53.326;-1.496;2024-01-30T14:03:42;0;0;
83024;PMS5003;72958;53.326;-1.496;2024-01-30T14:06:13;1;1;
83024;PMS5003;72958;53.326;-1.496;2024-01-30T14:08:54;0;0;
83024;PMS5003;72958;53.326;-1.496;2024-01-30T14:11:21;0;0;
83024;PMS5003;72958;53.326;-1.496;2024-01-30T14:14:07;1;1;
83024;PMS5003;72958;53.326;-1.496;2024-01-30T14:16:33;0;0;
83024;PMS5003;72958;53.326;-1.496;2024-01-30T14:18:58;1;1;
83024;PMS5003;72958;53.326;-1.496;2024-01-30T14:21:27;0;0;
83024;PMS5003;72958;53.326;-1.496;2024-01-30T14:23:53;0;0;
83024;PMS5003;72958;53.326;-1.496;2024-01-30T14:26:20;0;0;
83024;PMS5003;72958;53.326;-1.496;2024-01-30T14:28:51;0;0;
83024;PMS5003;72958;53.326;-1.496;2024-01-30T14:31:14;1;1;
83024;PMS5003;72958;53.326;-1.496;2024-01-30T14:33:53;1;1;
83024;PMS5003;72958;53.326;-1.496;2024-01-30T14:36:51;0;0;
83024;PMS5003;72958;53.326;-1.496;2024-01-30T14:39:28;2;0;
83024;PMS5003;72958;53.326;-1.496;2024-01-30T14:42:04;1;1;
83024;PMS5003;72958;53.326;-1.496;2024-01-30T14:44:34;0;0;
83024;PMS5003;72958;53.326;-1.496;2024-01-30T14:47:05;1;1;
83024;PMS5003;72958;53.326;-1.496;2024-01-30T14:49:31;0;0;
83024;PMS5003;72958;53.326;-1.496;2024-01-30T14:52:04;1;1;
83024;PMS5003;72958;53.326;-1.496;2024-01-30T14:54:30;0;0;
83024;PMS5003;72958;53.326;-1.496;2024-01-30T14:57:00;0;0;
83024;PMS5003;72958;53.326;-1.496;2024-01-30T14:59:34;2;2;
83024;PMS5003;72958;53.326;-1.496;2024-01-30T15:02:12;0;0;
83024;PMS5003;72958;53.326;-1.496;2024-01-30T15:04:43;0;0;
83024;PMS5003;72958;53.326;-1.496;2024-01-30T15:07:11;0;0;
83024;PMS5003;72958;53.326;-1.496;2024-01-30T15:09:35;1;1;
83024;PMS5003;72958;53.326;-1.496;2024-01-30T15:12:05;0;0;
83024;PMS5003;72958;53.326;-1.496;2024-01-30T15:14:41;2;2;
83024;PMS5003;72958;53.326;-1.496;2024-01-30T15:17:11;3;2;
83024;PMS5003;72958;53.326;-1.496;2024-01-30T15:19:36;2;1;
83024;PMS5003;72958;53.326;-1.496;2024-01-30T15:22:02;1;1;
83024;PMS5003;72958;53.326;-1.496;2024-01-30T15:24:32;1;1;
83024;PMS5003;72958;53.326;-1.496;2024-01-30T15:26:57;1;0;
83024;PMS5003;72958;53.326;-1.496;2024-01-30T15:30:22;0;0;
83024;PMS5003;72958;53.326;-1.496;2024-01-30T15:33:00;1;1;
83024;PMS5003;72958;53.326;-1.496;2024-01-30T15:35:32;2;2;
83024;PMS5003;72958;53.326;-1.496;2024-01-30T15:38:04;4;3;
83024;PMS5003;72958;53.326;-1.496;2024-01-30T15:40:36;0;0;
83024;PMS5003;72958;53.326;-1.496;2024-01-30T15:43:05;1;1;
83024;PMS5003;72958;53.326;-1.496;2024-01-30T15:45:47;0;0;
83024;PMS5003;72958;53.326;-1.496;2024-01-30T15:48:18;3;3;
83024;PMS5003;72958;53.326;-1.496;2024-01-30T15:50:54;1;1;
83024;PMS5003;72958;53.326;-1.496;2024-01-30T15:53:20;2;2;
83024;PMS5003;72958;53.326;-1.496;2024-01-30T15:55:54;1;1;
83024;PMS5003;72958;53.326;-1.496;2024-01-30T15:58:44;2;2;
83024;PMS5003;72958;53.326;-1.496;2024-01-30T16:01:27;2;2;
83024;PMS5003;72958;53.326;-1.496;2024-01-30T16:03:52;1;1;
83024;PMS5003;72958;53.326;-1.496;2024-01-30T16:07:17;4;4;
83024;PMS5003;72958;53.326;-1.496;2024-01-30T16:10:02;1;1;
83024;PMS5003;72958;53.326;-1.496;2024-01-30T16:12:34;0;0;
83024;PMS5003;72958;53.326;-1.496;2024-01-30T16:15:01;4;3;
83024;PMS5003;72958;53.326;-1.496;2024-01-30T16:17:43;2;2;
83024;PMS5003;72958;53.326;-1.496;2024-01-30T16:20:19;0;0;
83024;PMS5003;72958;53.326;-1.496;2024-01-30T16:22:53;3;2;
83024;PMS5003;72958;53.326;-1.496;2024-01-30T16:25:17;0;0;
83024;PMS5003;72958;53.326;-1.496;2024-01-30T16:27:40;2;2;
83024;PMS5003;72958;53.326;-1.496;2024-01-30T16:30:29;1;1;
83024;PMS5003;72958;53.326;-1.496;2024-01-30T16:32:54;2;2;
83024;PMS5003;72958;53.326;-1.496;2024-01-30T16:35:20;2;2;
83024;PMS5003;72958;53.326;-1.496;2024-01-30T16:37:56;1;1;
83024;PMS5003;72958;53.326;-1.496;2024-01-30T16:40:23;0;0;
83024;PMS5003;72958;53.326;-1.496;2024-01-30T16:42:56;0;0;
83024;PMS5003;72958;53.326;-1.496;2024-01-30T16:45:55;1;1;
83024;PMS5003;72958;53.326;-1.496;2024-01-30T16:48:53;0;0;
83024;PMS5003;72958;53.326;-1.496;2024-01-30T16:51:20;2;2;
83024;PMS5003;72958;53.326;-1.496;2024-01-30T16:54:03;2;2;
83024;PMS5003;72958;53.326;-1.496;2024-01-30T16:57:14;4;4;
83024;PMS5003;72958;53.326;-1.496;2024-01-30T16:59:38;1;1;
83024;PMS5003;72958;53.326;-1.496;2024-01-30T17:02:06;1;1;
83024;PMS5003;72958;53.326;-1.496;2024-01-30T17:04:33;2;1;
83024;PMS5003;72958;53.326;-1.496;2024-01-30T17:07:00;0;0;
83024;PMS5003;72958;53.326;-1.496;2024-01-30T17:09:29;3;3;
83024;PMS5003;72958;53.326;-1.496;2024-01-30T17:12:04;0;0;
83024;PMS5003;72958;53.326;-1.496;2024-01-30T17:15:03;4;3;
83024;PMS5003;72958;53.326;-1.496;2024-01-30T17:17:42;1;1;
83024;PMS5003;72958;53.326;-1.496;2024-01-30T17:20:33;2;2;
83024;PMS5003;72958;53.326;-1.496;2024-01-30T17:22:59;1;1;
83024;PMS5003;72958;53.326;-1.496;2024-01-30T17:25:26;1;1;
83024;PMS5003;72958;53.326;-1.496;2024-01-30T17:27:52;2;2;
83024;PMS5003;72958;53.326;-1.496;2024-01-30T17:30:23;2;2;
83024;PMS5003;72958;53.326;-1.496;2024-01-30T17:32:52;2;2;
83024;PMS5003;72958;53.326;-1.496;2024-01-30T17:35:19;2;2;
83024;PMS5003;72958;53.326;-1.496;2024-01-30T17:37:53;0;0;
83024;PMS5003;72958;53.326;-1.496;2024-01-30T17:40:19;8;6;
83024;PMS5003;72958;53.326;-1.496;2024-01-30T17:43:08;4;4;
83024;PMS5003;72958;53.326;-1.496;2024-01-30T17:45:48;1;1;
83024;PMS5003;72958;53.326;-1.496;2024-01-30T17:48:15;2;2;